New Douglas, Illinois
Current Conditions -  °F | °C
As of 1:35 PM on Tuesday 21 Oct 2014 (Local Time) from K3LF Reporting Station
Clear Clear  
Wind Chill: 61°   Ceiling: Unl
Heat Index: 61°   Visibility: 10mi
Dew Point: 43°   Wind: 8mph
Humidity: 51%   Direction: 10°N
Pressure: 30.13"   Gusts: NA
Location:  38.97°N, 89.67°W
Report Text: K3LF 211835Z AUTO 01007KT 10SM CLR 16/06 A3013 RMK AO2 T01620061
Loading
Personal Weather Stations






























Interactive Weather Map
Tropical Storm Tracking
New forecast layout! Learn more

10-Day Weather Forecast

Advertisements
Track Severe Weather on mobile